sensor_id;sensor_type;location;lat;lon;timestamp;P1;durP1;ratioP1;P2;durP2;ratioP2
47555;SDS011;33291;46.222;26.460;2022-07-22T00:00:00;3.10;;;1.20;;
47555;SDS011;33291;46.222;26.460;2022-07-22T00:02:26;2.13;;;1.15;;
47555;SDS011;33291;46.222;26.460;2022-07-22T00:04:51;7.03;;;0.95;;
47555;SDS011;33291;46.222;26.460;2022-07-22T00:07:17;6.07;;;1.42;;
47555;SDS011;33291;46.222;26.460;2022-07-22T00:09:43;2.20;;;0.90;;
47555;SDS011;33291;46.222;26.460;2022-07-22T00:12:08;4.68;;;1.65;;
47555;SDS011;33291;46.222;26.460;2022-07-22T00:14:34;4.65;;;1.40;;
47555;SDS011;33291;46.222;26.460;2022-07-22T00:16:59;2.75;;;1.15;;
47555;SDS011;33291;46.222;26.460;2022-07-22T00:19:25;1.40;;;0.85;;
47555;SDS011;33291;46.222;26.460;2022-07-22T00:21:51;4.90;;;1.10;;
47555;SDS011;33291;46.222;26.460;2022-07-22T00:24:18;6.00;;;1.20;;
47555;SDS011;33291;46.222;26.460;2022-07-22T00:26:44;3.90;;;0.98;;
47555;SDS011;33291;46.222;26.460;2022-07-22T00:29:09;2.40;;;1.15;;
47555;SDS011;33291;46.222;26.460;2022-07-22T00:31:35;2.17;;;0.88;;
47555;SDS011;33291;46.222;26.460;2022-07-22T00:34:01;1.77;;;1.00;;
47555;SDS011;33291;46.222;26.460;2022-07-22T00:36:27;5.55;;;1.27;;
47555;SDS011;33291;46.222;26.460;2022-07-22T00:38:53;4.18;;;1.40;;
47555;SDS011;33291;46.222;26.460;2022-07-22T00:41:19;2.17;;;1.10;;
47555;SDS011;33291;46.222;26.460;2022-07-22T00:43:48;3.13;;;0.80;;
47555;SDS011;33291;46.222;26.460;2022-07-22T00:46:24;2.22;;;0.90;;
47555;SDS011;33291;46.222;26.460;2022-07-22T00:48:51;4.53;;;1.00;;
47555;SDS011;33291;46.222;26.460;2022-07-22T00:51:18;2.60;;;1.10;;
47555;SDS011;33291;46.222;26.460;2022-07-22T00:53:44;5.50;;;1.15;;
47555;SDS011;33291;46.222;26.460;2022-07-22T00:56:11;1.98;;;1.20;;
47555;SDS011;33291;46.222;26.460;2022-07-22T00:58:37;4.85;;;0.85;;
47555;SDS011;33291;46.222;26.460;2022-07-22T01:01:02;3.22;;;1.02;;
47555;SDS011;33291;46.222;26.460;2022-07-22T01:03:29;1.48;;;0.98;;
47555;SDS011;33291;46.222;26.460;2022-07-22T01:05:54;2.20;;;1.02;;
47555;SDS011;33291;46.222;26.460;2022-07-22T01:08:20;4.30;;;1.10;;
47555;SDS011;33291;46.222;26.460;2022-07-22T01:10:45;5.60;;;1.27;;
47555;SDS011;33291;46.222;26.460;2022-07-22T01:13:11;3.45;;;1.20;;
47555;SDS011;33291;46.222;26.460;2022-07-22T01:15:37;2.92;;;0.80;;
47555;SDS011;33291;46.222;26.460;2022-07-22T01:18:02;4.90;;;0.90;;
47555;SDS011;33291;46.222;26.460;2022-07-22T01:20:29;2.97;;;0.95;;
47555;SDS011;33291;46.222;26.460;2022-07-22T01:22:55;3.70;;;1.17;;
47555;SDS011;33291;46.222;26.460;2022-07-22T01:25:20;5.70;;;1.30;;
47555;SDS011;33291;46.222;26.460;2022-07-22T01:27:46;2.50;;;1.13;;
47555;SDS011;33291;46.222;26.460;2022-07-22T01:30:12;4.82;;;0.90;;
47555;SDS011;33291;46.222;26.460;2022-07-22T01:32:37;2.88;;;0.70;;
47555;SDS011;33291;46.222;26.460;2022-07-22T01:35:03;5.50;;;1.23;;
47555;SDS011;33291;46.222;26.460;2022-07-22T01:37:29;5.97;;;1.75;;
47555;SDS011;33291;46.222;26.460;2022-07-22T01:39:56;1.52;;;0.60;;
47555;SDS011;33291;46.222;26.460;2022-07-22T01:42:22;1.75;;;0.95;;
47555;SDS011;33291;46.222;26.460;2022-07-22T01:44:48;2.90;;;0.73;;
47555;SDS011;33291;46.222;26.460;2022-07-22T01:47:13;2.33;;;0.93;;
47555;SDS011;33291;46.222;26.460;2022-07-22T01:49:39;6.53;;;2.10;;
47555;SDS011;33291;46.222;26.460;2022-07-22T01:52:05;7.80;;;1.10;;
47555;SDS011;33291;46.222;26.460;2022-07-22T01:54:30;2.03;;;0.90;;
47555;SDS011;33291;46.222;26.460;2022-07-22T01:56:56;2.88;;;1.23;;
47555;SDS011;33291;46.222;26.460;2022-07-22T01:59:22;2.22;;;1.00;;
47555;SDS011;33291;46.222;26.460;2022-07-22T02:01:48;1.83;;;0.93;;
47555;SDS011;33291;46.222;26.460;2022-07-22T02:04:13;2.80;;;0.93;;
47555;SDS011;33291;46.222;26.460;2022-07-22T02:06:39;2.78;;;0.90;;
47555;SDS011;33291;46.222;26.460;2022-07-22T02:09:05;1.63;;;0.75;;
47555;SDS011;33291;46.222;26.460;2022-07-22T02:11:31;5.85;;;0.90;;
47555;SDS011;33291;46.222;26.460;2022-07-22T02:13:56;3.22;;;1.38;;
47555;SDS011;33291;46.222;26.460;2022-07-22T02:16:23;6.07;;;1.30;;
47555;SDS011;33291;46.222;26.460;2022-07-22T02:18:49;1.67;;;0.68;;
47555;SDS011;33291;46.222;26.460;2022-07-22T02:21:15;2.67;;;0.95;;
47555;SDS011;33291;46.222;26.460;2022-07-22T02:23:41;1.27;;;0.73;;
47555;SDS011;33291;46.222;26.460;2022-07-22T02:26:07;3.10;;;0.77;;
47555;SDS011;33291;46.222;26.460;2022-07-22T02:28:32;1.30;;;0.75;;
47555;SDS011;33291;46.222;26.460;2022-07-22T02:30:58;1.17;;;0.60;;
47555;SDS011;33291;46.222;26.460;2022-07-22T02:33:24;1.70;;;0.90;;
47555;SDS011;33291;46.222;26.460;2022-07-22T02:35:49;4.05;;;0.70;;
47555;SDS011;33291;46.222;26.460;2022-07-22T02:38:15;4.50;;;1.00;;
47555;SDS011;33291;46.222;26.460;2022-07-22T02:40:40;3.05;;;1.45;;
47555;SDS011;33291;46.222;26.460;2022-07-22T02:43:06;2.33;;;0.77;;
47555;SDS011;33291;46.222;26.460;2022-07-22T02:45:32;3.67;;;1.40;;
47555;SDS011;33291;46.222;26.460;2022-07-22T02:47:58;2.22;;;1.02;;
47555;SDS011;33291;46.222;26.460;2022-07-22T02:50:24;1.27;;;0.95;;
47555;SDS011;33291;46.222;26.460;2022-07-22T02:52:50;2.53;;;1.02;;
47555;SDS011;33291;46.222;26.460;2022-07-22T02:55:16;2.28;;;0.93;;
47555;SDS011;33291;46.222;26.460;2022-07-22T02:57:42;2.28;;;1.08;;
47555;SDS011;33291;46.222;26.460;2022-07-22T03:00:08;1.90;;;1.00;;
47555;SDS011;33291;46.222;26.460;2022-07-22T03:02:36;3.25;;;1.10;;
47555;SDS011;33291;46.222;26.460;2022-07-22T03:05:02;2.40;;;0.90;;
47555;SDS011;33291;46.222;26.460;2022-07-22T03:07:29;3.25;;;1.17;;
47555;SDS011;33291;46.222;26.460;2022-07-22T03:09:55;1.90;;;1.00;;
47555;SDS011;33291;46.222;26.460;2022-07-22T03:12:20;10.13;;;1.88;;
47555;SDS011;33291;46.222;26.460;2022-07-22T03:14:46;2.40;;;0.88;;
47555;SDS011;33291;46.222;26.460;2022-07-22T03:17:11;5.53;;;1.10;;
47555;SDS011;33291;46.222;26.460;2022-07-22T03:19:37;5.00;;;1.40;;
47555;SDS011;33291;46.222;26.460;2022-07-22T03:22:02;6.40;;;1.45;;
47555;SDS011;33291;46.222;26.460;2022-07-22T03:24:28;3.38;;;1.08;;
47555;SDS011;33291;46.222;26.460;2022-07-22T03:26:54;11.55;;;1.35;;
47555;SDS011;33291;46.222;26.460;2022-07-22T03:29:20;1.30;;;0.82;;
47555;SDS011;33291;46.222;26.460;2022-07-22T03:31:45;1.88;;;0.90;;
47555;SDS011;33291;46.222;26.460;2022-07-22T03:34:11;1.75;;;1.08;;
47555;SDS011;33291;46.222;26.460;2022-07-22T03:36:36;5.18;;;1.25;;
47555;SDS011;33291;46.222;26.460;2022-07-22T03:39:02;1.90;;;0.98;;
47555;SDS011;33291;46.222;26.460;2022-07-22T03:41:28;3.53;;;1.02;;
47555;SDS011;33291;46.222;26.460;2022-07-22T03:43:54;2.17;;;1.00;;
47555;SDS011;33291;46.222;26.460;2022-07-22T03:46:19;1.70;;;1.00;;
47555;SDS011;33291;46.222;26.460;2022-07-22T03:48:45;8.90;;;1.33;;
47555;SDS011;33291;46.222;26.460;2022-07-22T03:51:10;9.57;;;0.95;;
47555;SDS011;33291;46.222;26.460;2022-07-22T03:53:36;2.63;;;1.10;;
47555;SDS011;33291;46.222;26.460;2022-07-22T03:56:02;2.20;;;1.00;;
47555;SDS011;33291;46.222;26.460;2022-07-22T03:58:28;11.68;;;1.50;;
47555;SDS011;33291;46.222;26.460;2022-07-22T04:00:53;6.75;;;1.63;;
47555;SDS011;33291;46.222;26.460;2022-07-22T04:03:19;2.92;;;1.05;;
47555;SDS011;33291;46.222;26.460;2022-07-22T04:05:45;4.43;;;1.15;;
47555;SDS011;33291;46.222;26.460;2022-07-22T04:08:11;4.05;;;1.10;;
47555;SDS011;33291;46.222;26.460;2022-07-22T04:10:38;3.75;;;1.40;;
47555;SDS011;33291;46.222;26.460;2022-07-22T04:13:04;3.83;;;0.90;;
47555;SDS011;33291;46.222;26.460;2022-07-22T04:15:29;3.10;;;1.17;;
47555;SDS011;33291;46.222;26.460;2022-07-22T04:17:55;2.65;;;1.23;;
47555;SDS011;33291;46.222;26.460;2022-07-22T04:20:21;3.47;;;1.10;;
47555;SDS011;33291;46.222;26.460;2022-07-22T04:22:47;2.25;;;1.33;;
47555;SDS011;33291;46.222;26.460;2022-07-22T04:25:12;2.92;;;1.02;;
47555;SDS011;33291;46.222;26.460;2022-07-22T04:27:38;4.45;;;1.35;;
47555;SDS011;33291;46.222;26.460;2022-07-22T04:30:03;1.40;;;1.00;;
47555;SDS011;33291;46.222;26.460;2022-07-22T04:32:29;2.67;;;1.15;;
47555;SDS011;33291;46.222;26.460;2022-07-22T04:34:55;10.73;;;1.10;;
47555;SDS011;33291;46.222;26.460;2022-07-22T04:37:21;4.22;;;1.17;;
47555;SDS011;33291;46.222;26.460;2022-07-22T04:39:46;7.43;;;1.38;;
47555;SDS011;33291;46.222;26.460;2022-07-22T04:42:12;4.07;;;1.23;;
47555;SDS011;33291;46.222;26.460;2022-07-22T04:44:37;10.63;;;1.20;;
47555;SDS011;33291;46.222;26.460;2022-07-22T04:47:03;6.85;;;1.52;;
47555;SDS011;33291;46.222;26.460;2022-07-22T04:49:28;5.13;;;1.55;;
47555;SDS011;33291;46.222;26.460;2022-07-22T04:51:54;4.60;;;1.65;;
47555;SDS011;33291;46.222;26.460;2022-07-22T04:54:20;3.28;;;0.90;;
47555;SDS011;33291;46.222;26.460;2022-07-22T04:56:45;4.35;;;1.27;;
47555;SDS011;33291;46.222;26.460;2022-07-22T04:59:11;4.00;;;1.70;;
47555;SDS011;33291;46.222;26.460;2022-07-22T05:01:37;3.97;;;1.58;;
47555;SDS011;33291;46.222;26.460;2022-07-22T05:04:02;6.85;;;1.60;;
47555;SDS011;33291;46.222;26.460;2022-07-22T05:06:28;3.78;;;1.52;;
47555;SDS011;33291;46.222;26.460;2022-07-22T05:08:54;4.53;;;1.60;;
47555;SDS011;33291;46.222;26.460;2022-07-22T05:11:19;3.03;;;1.30;;
47555;SDS011;33291;46.222;26.460;2022-07-22T05:13:45;3.35;;;1.00;;
47555;SDS011;33291;46.222;26.460;2022-07-22T05:16:10;5.22;;;1.50;;
47555;SDS011;33291;46.222;26.460;2022-07-22T05:18:36;1.77;;;1.17;;
47555;SDS011;33291;46.222;26.460;2022-07-22T05:21:02;2.53;;;1.40;;
47555;SDS011;33291;46.222;26.460;2022-07-22T05:23:28;9.88;;;1.35;;
47555;SDS011;33291;46.222;26.460;2022-07-22T05:25:54;4.82;;;1.63;;
47555;SDS011;33291;46.222;26.460;2022-07-22T05:28:19;3.88;;;2.10;;
47555;SDS011;33291;46.222;26.460;2022-07-22T05:30:45;5.07;;;1.27;;
47555;SDS011;33291;46.222;26.460;2022-07-22T05:33:11;3.00;;;1.58;;
47555;SDS011;33291;46.222;26.460;2022-07-22T05:35:36;2.78;;;1.20;;
47555;SDS011;33291;46.222;26.460;2022-07-22T05:38:02;2.50;;;1.40;;
47555;SDS011;33291;46.222;26.460;2022-07-22T05:40:28;4.13;;;1.73;;
47555;SDS011;33291;46.222;26.460;2022-07-22T05:42:54;4.45;;;1.40;;
47555;SDS011;33291;46.222;26.460;2022-07-22T05:45:19;3.13;;;2.30;;
47555;SDS011;33291;46.222;26.460;2022-07-22T05:47:45;5.03;;;2.47;;
47555;SDS011;33291;46.222;26.460;2022-07-22T05:50:10;4.60;;;1.98;;
47555;SDS011;33291;46.222;26.460;2022-07-22T05:52:36;6.95;;;1.67;;
47555;SDS011;33291;46.222;26.460;2022-07-22T05:55:02;4.10;;;1.65;;
47555;SDS011;33291;46.222;26.460;2022-07-22T05:57:28;6.72;;;1.95;;
47555;SDS011;33291;46.222;26.460;2022-07-22T05:59:53;4.55;;;1.13;;
47555;SDS011;33291;46.222;26.460;2022-07-22T06:02:19;6.30;;;1.50;;
47555;SDS011;33291;46.222;26.460;2022-07-22T06:04:44;6.07;;;1.70;;
47555;SDS011;33291;46.222;26.460;2022-07-22T06:07:10;4.93;;;1.70;;
47555;SDS011;33291;46.222;26.460;2022-07-22T06:09:35;4.18;;;1.83;;
47555;SDS011;33291;46.222;26.460;2022-07-22T06:12:01;8.68;;;1.83;;
47555;SDS011;33291;46.222;26.460;2022-07-22T06:14:27;2.97;;;1.30;;
47555;SDS011;33291;46.222;26.460;2022-07-22T06:16:52;7.45;;;2.17;;
47555;SDS011;33291;46.222;26.460;2022-07-22T06:19:18;2.63;;;1.70;;
47555;SDS011;33291;46.222;26.460;2022-07-22T06:21:43;5.40;;;1.88;;
47555;SDS011;33291;46.222;26.460;2022-07-22T06:24:09;5.88;;;1.90;;
47555;SDS011;33291;46.222;26.460;2022-07-22T06:26:34;2.45;;;1.73;;
47555;SDS011;33291;46.222;26.460;2022-07-22T06:29:00;3.53;;;1.80;;
47555;SDS011;33291;46.222;26.460;2022-07-22T06:31:25;4.28;;;2.10;;
47555;SDS011;33291;46.222;26.460;2022-07-22T06:33:51;2.40;;;1.58;;
47555;SDS011;33291;46.222;26.460;2022-07-22T06:36:16;4.28;;;1.65;;
47555;SDS011;33291;46.222;26.460;2022-07-22T06:38:43;2.78;;;1.50;;
47555;SDS011;33291;46.222;26.460;2022-07-22T06:41:08;3.67;;;1.67;;
47555;SDS011;33291;46.222;26.460;2022-07-22T06:43:35;4.07;;;1.80;;
47555;SDS011;33291;46.222;26.460;2022-07-22T06:46:01;3.58;;;1.88;;
47555;SDS011;33291;46.222;26.460;2022-07-22T06:48:26;2.33;;;1.75;;
47555;SDS011;33291;46.222;26.460;2022-07-22T06:50:52;4.15;;;2.00;;
47555;SDS011;33291;46.222;26.460;2022-07-22T06:53:17;4.55;;;2.22;;
47555;SDS011;33291;46.222;26.460;2022-07-22T06:55:43;9.73;;;2.08;;
47555;SDS011;33291;46.222;26.460;2022-07-22T06:58:08;4.53;;;1.85;;
47555;SDS011;33291;46.222;26.460;2022-07-22T07:00:34;7.50;;;2.40;;
47555;SDS011;33291;46.222;26.460;2022-07-22T07:03:00;3.05;;;1.90;;
47555;SDS011;33291;46.222;26.460;2022-07-22T07:05:26;7.28;;;2.30;;
47555;SDS011;33291;46.222;26.460;2022-07-22T07:07:53;9.43;;;1.50;;
47555;SDS011;33291;46.222;26.460;2022-07-22T07:10:19;10.70;;;2.10;;
47555;SDS011;33291;46.222;26.460;2022-07-22T07:12:45;4.82;;;1.90;;
47555;SDS011;33291;46.222;26.460;2022-07-22T07:15:11;8.75;;;2.42;;
47555;SDS011;33291;46.222;26.460;2022-07-22T07:17:37;5.22;;;2.50;;
47555;SDS011;33291;46.222;26.460;2022-07-22T07:20:03;3.17;;;1.83;;
47555;SDS011;33291;46.222;26.460;2022-07-22T07:22:29;2.55;;;2.03;;
47555;SDS011;33291;46.222;26.460;2022-07-22T07:24:55;6.57;;;1.85;;
47555;SDS011;33291;46.222;26.460;2022-07-22T07:27:20;6.93;;;2.35;;
47555;SDS011;33291;46.222;26.460;2022-07-22T07:29:46;2.50;;;1.80;;
47555;SDS011;33291;46.222;26.460;2022-07-22T07:32:11;3.85;;;1.98;;
47555;SDS011;33291;46.222;26.460;2022-07-22T07:34:37;8.00;;;2.30;;
47555;SDS011;33291;46.222;26.460;2022-07-22T07:37:03;10.23;;;2.95;;
47555;SDS011;33291;46.222;26.460;2022-07-22T07:39:29;2.90;;;2.05;;
47555;SDS011;33291;46.222;26.460;2022-07-22T07:41:54;3.53;;;1.83;;
47555;SDS011;33291;46.222;26.460;2022-07-22T07:44:20;3.08;;;2.08;;
47555;SDS011;33291;46.222;26.460;2022-07-22T07:46:46;3.00;;;2.17;;
47555;SDS011;33291;46.222;26.460;2022-07-22T07:49:12;8.45;;;2.25;;
47555;SDS011;33291;46.222;26.460;2022-07-22T07:51:37;7.97;;;2.20;;
47555;SDS011;33291;46.222;26.460;2022-07-22T07:54:03;8.88;;;2.58;;
47555;SDS011;33291;46.222;26.460;2022-07-22T07:56:28;4.07;;;2.00;;
47555;SDS011;33291;46.222;26.460;2022-07-22T07:58:54;4.05;;;2.42;;
47555;SDS011;33291;46.222;26.460;2022-07-22T08:01:19;8.10;;;2.33;;
47555;SDS011;33291;46.222;26.460;2022-07-22T08:03:45;4.25;;;1.88;;
47555;SDS011;33291;46.222;26.460;2022-07-22T08:06:10;7.22;;;2.80;;
47555;SDS011;33291;46.222;26.460;2022-07-22T08:08:36;4.50;;;2.20;;
47555;SDS011;33291;46.222;26.460;2022-07-22T08:11:02;4.93;;;2.10;;
47555;SDS011;33291;46.222;26.460;2022-07-22T08:13:27;5.15;;;2.22;;
47555;SDS011;33291;46.222;26.460;2022-07-22T08:15:53;5.30;;;2.10;;
47555;SDS011;33291;46.222;26.460;2022-07-22T08:18:19;4.45;;;2.72;;
47555;SDS011;33291;46.222;26.460;2022-07-22T08:20:45;5.97;;;2.28;;
47555;SDS011;33291;46.222;26.460;2022-07-22T08:23:10;8.93;;;2.67;;
47555;SDS011;33291;46.222;26.460;2022-07-22T08:25:37;3.90;;;2.10;;
47555;SDS011;33291;46.222;26.460;2022-07-22T08:28:03;6.97;;;2.38;;
47555;SDS011;33291;46.222;26.460;2022-07-22T08:30:29;9.93;;;2.03;;
47555;SDS011;33291;46.222;26.460;2022-07-22T08:32:55;5.20;;;2.38;;
47555;SDS011;33291;46.222;26.460;2022-07-22T08:35:21;4.68;;;2.47;;
47555;SDS011;33291;46.222;26.460;2022-07-22T08:37:47;4.13;;;2.33;;
47555;SDS011;33291;46.222;26.460;2022-07-22T08:40:13;6.05;;;2.47;;
47555;SDS011;33291;46.222;26.460;2022-07-22T08:42:41;11.00;;;2.55;;
47555;SDS011;33291;46.222;26.460;2022-07-22T08:45:08;9.80;;;2.20;;
47555;SDS011;33291;46.222;26.460;2022-07-22T08:47:34;4.45;;;2.20;;
47555;SDS011;33291;46.222;26.460;2022-07-22T08:50:00;4.50;;;2.17;;
47555;SDS011;33291;46.222;26.460;2022-07-22T08:52:26;8.60;;;2.60;;
47555;SDS011;33291;46.222;26.460;2022-07-22T08:54:52;3.97;;;1.92;;
47555;SDS011;33291;46.222;26.460;2022-07-22T08:57:18;5.93;;;2.10;;
47555;SDS011;33291;46.222;26.460;2022-07-22T09:02:16;9.02;;;2.25;;
47555;SDS011;33291;46.222;26.460;2022-07-22T09:04:53;16.77;;;3.03;;
47555;SDS011;33291;46.222;26.460;2022-07-22T09:07:29;4.28;;;2.92;;
47555;SDS011;33291;46.222;26.460;2022-07-22T09:10:06;6.65;;;2.60;;
47555;SDS011;33291;46.222;26.460;2022-07-22T09:12:33;6.30;;;2.63;;
47555;SDS011;33291;46.222;26.460;2022-07-22T09:15:00;5.45;;;2.17;;
47555;SDS011;33291;46.222;26.460;2022-07-22T09:20:01;5.18;;;2.45;;
47555;SDS011;33291;46.222;26.460;2022-07-22T09:22:40;8.55;;;2.35;;
47555;SDS011;33291;46.222;26.460;2022-07-22T09:28:18;5.82;;;2.30;;
47555;SDS011;33291;46.222;26.460;2022-07-22T09:30:50;9.93;;;2.63;;
47555;SDS011;33291;46.222;26.460;2022-07-22T09:33:18;6.18;;;2.40;;
47555;SDS011;33291;46.222;26.460;2022-07-22T09:35:45;8.10;;;2.90;;
47555;SDS011;33291;46.222;26.460;2022-07-22T09:38:12;3.42;;;2.28;;
47555;SDS011;33291;46.222;26.460;2022-07-22T09:40:45;2.30;;;2.10;;
47555;SDS011;33291;46.222;26.460;2022-07-22T09:43:13;9.00;;;2.45;;
47555;SDS011;33291;46.222;26.460;2022-07-22T09:48:20;4.50;;;2.30;;
47555;SDS011;33291;46.222;26.460;2022-07-22T09:50:50;4.68;;;2.58;;
47555;SDS011;33291;46.222;26.460;2022-07-22T09:53:17;6.43;;;2.42;;
47555;SDS011;33291;46.222;26.460;2022-07-22T09:55:45;7.45;;;2.35;;
47555;SDS011;33291;46.222;26.460;2022-07-22T09:58:12;7.40;;;2.75;;
47555;SDS011;33291;46.222;26.460;2022-07-22T10:00:39;5.60;;;2.88;;
47555;SDS011;33291;46.222;26.460;2022-07-22T10:03:07;6.97;;;2.55;;
47555;SDS011;33291;46.222;26.460;2022-07-22T10:05:40;4.90;;;2.60;;
47555;SDS011;33291;46.222;26.460;2022-07-22T10:08:06;8.65;;;2.60;;
47555;SDS011;33291;46.222;26.460;2022-07-22T10:10:33;7.35;;;2.83;;
47555;SDS011;33291;46.222;26.460;2022-07-22T10:13:00;5.70;;;2.50;;
47555;SDS011;33291;46.222;26.460;2022-07-22T10:15:28;4.63;;;2.25;;
47555;SDS011;33291;46.222;26.460;2022-07-22T10:17:55;6.57;;;2.40;;
47555;SDS011;33291;46.222;26.460;2022-07-22T10:20:23;4.85;;;2.50;;
47555;SDS011;33291;46.222;26.460;2022-07-22T10:22:52;6.43;;;2.40;;
47555;SDS011;33291;46.222;26.460;2022-07-22T10:25:26;4.72;;;2.45;;
47555;SDS011;33291;46.222;26.460;2022-07-22T10:27:57;6.68;;;2.53;;
47555;SDS011;33291;46.222;26.460;2022-07-22T10:30:29;5.38;;;2.67;;
47555;SDS011;33291;46.222;26.460;2022-07-22T10:35:58;4.72;;;2.50;;
47555;SDS011;33291;46.222;26.460;2022-07-22T10:38:26;7.20;;;2.50;;
47555;SDS011;33291;46.222;26.460;2022-07-22T10:46:06;5.35;;;2.80;;
47555;SDS011;33291;46.222;26.460;2022-07-22T10:51:14;7.03;;;2.88;;
47555;SDS011;33291;46.222;26.460;2022-07-22T10:58:54;5.75;;;2.30;;
47555;SDS011;33291;46.222;26.460;2022-07-22T11:01:30;8.85;;;2.75;;
47555;SDS011;33291;46.222;26.460;2022-07-22T11:04:06;5.10;;;2.55;;
47555;SDS011;33291;46.222;26.460;2022-07-22T11:06:35;13.75;;;3.17;;
47555;SDS011;33291;46.222;26.460;2022-07-22T11:09:02;5.00;;;3.00;;
47555;SDS011;33291;46.222;26.460;2022-07-22T11:13:59;10.85;;;3.15;;
47555;SDS011;33291;46.222;26.460;2022-07-22T11:16:26;9.15;;;2.50;;
47555;SDS011;33291;46.222;26.460;2022-07-22T11:19:00;4.18;;;2.60;;
47555;SDS011;33291;46.222;26.460;2022-07-22T11:21:30;6.93;;;2.50;;
47555;SDS011;33291;46.222;26.460;2022-07-22T11:23:58;6.55;;;2.80;;
47555;SDS011;33291;46.222;26.460;2022-07-22T11:26:42;5.50;;;2.30;;
47555;SDS011;33291;46.222;26.460;2022-07-22T11:29:10;6.82;;;2.72;;
47555;SDS011;33291;46.222;26.460;2022-07-22T11:31:40;6.40;;;3.00;;
47555;SDS011;33291;46.222;26.460;2022-07-22T11:34:07;8.05;;;3.42;;
47555;SDS011;33291;46.222;26.460;2022-07-22T11:36:34;6.82;;;2.45;;
47555;SDS011;33291;46.222;26.460;2022-07-22T11:39:01;10.75;;;2.58;;
47555;SDS011;33291;46.222;26.460;2022-07-22T11:41:28;7.38;;;2.88;;
47555;SDS011;33291;46.222;26.460;2022-07-22T11:43:56;6.38;;;2.55;;
47555;SDS011;33291;46.222;26.460;2022-07-22T11:46:22;9.65;;;3.15;;
47555;SDS011;33291;46.222;26.460;2022-07-22T11:48:50;7.82;;;3.08;;
47555;SDS011;33291;46.222;26.460;2022-07-22T11:51:17;6.32;;;2.83;;
47555;SDS011;33291;46.222;26.460;2022-07-22T11:53:43;6.90;;;2.92;;
47555;SDS011;33291;46.222;26.460;2022-07-22T11:56:09;8.20;;;2.90;;
47555;SDS011;33291;46.222;26.460;2022-07-22T11:58:43;5.35;;;2.83;;
47555;SDS011;33291;46.222;26.460;2022-07-22T12:01:12;8.50;;;2.70;;
47555;SDS011;33291;46.222;26.460;2022-07-22T12:03:40;14.00;;;2.95;;
47555;SDS011;33291;46.222;26.460;2022-07-22T12:06:10;9.35;;;3.40;;
47555;SDS011;33291;46.222;26.460;2022-07-22T12:08:42;5.57;;;2.58;;
47555;SDS011;33291;46.222;26.460;2022-07-22T12:11:10;8.73;;;2.40;;
47555;SDS011;33291;46.222;26.460;2022-07-22T12:13:40;5.70;;;2.83;;
47555;SDS011;33291;46.222;26.460;2022-07-22T12:16:29;9.48;;;3.22;;
47555;SDS011;33291;46.222;26.460;2022-07-22T12:19:13;7.55;;;2.65;;
47555;SDS011;33291;46.222;26.460;2022-07-22T12:21:52;7.95;;;2.95;;
47555;SDS011;33291;46.222;26.460;2022-07-22T12:24:27;10.82;;;2.92;;
47555;SDS011;33291;46.222;26.460;2022-07-22T12:27:00;9.63;;;2.75;;
47555;SDS011;33291;46.222;26.460;2022-07-22T12:29:28;10.65;;;2.92;;
47555;SDS011;33291;46.222;26.460;2022-07-22T12:32:00;7.45;;;2.65;;
47555;SDS011;33291;46.222;26.460;2022-07-22T12:37:11;10.05;;;2.72;;
47555;SDS011;33291;46.222;26.460;2022-07-22T12:39:37;7.68;;;2.97;;
47555;SDS011;33291;46.222;26.460;2022-07-22T12:42:02;19.90;;;3.40;;
47555;SDS011;33291;46.222;26.460;2022-07-22T12:44:40;7.60;;;2.97;;
47555;SDS011;33291;46.222;26.460;2022-07-22T12:47:16;10.02;;;3.05;;
47555;SDS011;33291;46.222;26.460;2022-07-22T12:49:41;5.18;;;2.75;;
47555;SDS011;33291;46.222;26.460;2022-07-22T12:52:13;6.78;;;3.47;;
47555;SDS011;33291;46.222;26.460;2022-07-22T12:54:39;11.95;;;3.72;;
47555;SDS011;33291;46.222;26.460;2022-07-22T12:57:07;9.73;;;3.40;;
47555;SDS011;33291;46.222;26.460;2022-07-22T12:59:34;7.22;;;2.72;;
47555;SDS011;33291;46.222;26.460;2022-07-22T13:02:01;10.20;;;2.55;;
47555;SDS011;33291;46.222;26.460;2022-07-22T13:04:27;9.35;;;2.70;;
47555;SDS011;33291;46.222;26.460;2022-07-22T13:06:53;8.13;;;3.15;;
47555;SDS011;33291;46.222;26.460;2022-07-22T13:09:18;10.38;;;2.97;;
47555;SDS011;33291;46.222;26.460;2022-07-22T13:11:44;11.40;;;3.22;;
47555;SDS011;33291;46.222;26.460;2022-07-22T13:14:11;15.52;;;2.83;;
47555;SDS011;33291;46.222;26.460;2022-07-22T13:16:37;8.75;;;3.17;;
47555;SDS011;33291;46.222;26.460;2022-07-22T13:19:03;15.02;;;3.53;;
47555;SDS011;33291;46.222;26.460;2022-07-22T13:21:29;5.15;;;2.90;;
47555;SDS011;33291;46.222;26.460;2022-07-22T13:23:54;8.45;;;3.75;;
47555;SDS011;33291;46.222;26.460;2022-07-22T13:26:20;4.82;;;2.40;;
47555;SDS011;33291;46.222;26.460;2022-07-22T13:28:46;12.43;;;3.75;;
47555;SDS011;33291;46.222;26.460;2022-07-22T13:31:12;8.30;;;3.33;;
47555;SDS011;33291;46.222;26.460;2022-07-22T13:33:37;5.40;;;2.60;;
47555;SDS011;33291;46.222;26.460;2022-07-22T13:36:03;9.25;;;3.00;;
47555;SDS011;33291;46.222;26.460;2022-07-22T13:38:29;6.13;;;2.65;;
47555;SDS011;33291;46.222;26.460;2022-07-22T13:40:55;7.38;;;2.78;;
47555;SDS011;33291;46.222;26.460;2022-07-22T13:43:21;7.43;;;3.35;;
47555;SDS011;33291;46.222;26.460;2022-07-22T13:45:48;8.88;;;2.88;;
47555;SDS011;33291;46.222;26.460;2022-07-22T13:48:14;4.78;;;2.78;;
47555;SDS011;33291;46.222;26.460;2022-07-22T13:50:42;7.30;;;3.10;;
47555;SDS011;33291;46.222;26.460;2022-07-22T13:53:08;9.25;;;3.08;;
47555;SDS011;33291;46.222;26.460;2022-07-22T13:55:33;10.50;;;3.38;;
47555;SDS011;33291;46.222;26.460;2022-07-22T13:57:59;5.22;;;2.80;;
47555;SDS011;33291;46.222;26.460;2022-07-22T14:00:24;12.60;;;3.22;;
47555;SDS011;33291;46.222;26.460;2022-07-22T14:02:50;12.38;;;3.55;;
47555;SDS011;33291;46.222;26.460;2022-07-22T14:05:17;6.07;;;3.42;;
47555;SDS011;33291;46.222;26.460;2022-07-22T14:07:43;10.95;;;2.92;;
47555;SDS011;33291;46.222;26.460;2022-07-22T14:10:08;11.68;;;3.42;;
47555;SDS011;33291;46.222;26.460;2022-07-22T14:12:34;10.07;;;2.78;;
47555;SDS011;33291;46.222;26.460;2022-07-22T14:15:00;6.30;;;2.97;;
47555;SDS011;33291;46.222;26.460;2022-07-22T14:17:25;7.30;;;3.08;;
47555;SDS011;33291;46.222;26.460;2022-07-22T14:19:51;11.23;;;3.17;;
47555;SDS011;33291;46.222;26.460;2022-07-22T14:22:16;11.95;;;2.90;;
47555;SDS011;33291;46.222;26.460;2022-07-22T14:24:42;6.38;;;2.97;;
47555;SDS011;33291;46.222;26.460;2022-07-22T14:27:07;8.02;;;2.60;;
47555;SDS011;33291;46.222;26.460;2022-07-22T14:29:33;6.15;;;3.20;;
47555;SDS011;33291;46.222;26.460;2022-07-22T14:31:58;8.95;;;2.70;;
47555;SDS011;33291;46.222;26.460;2022-07-22T14:34:24;8.98;;;3.33;;
47555;SDS011;33291;46.222;26.460;2022-07-22T14:36:49;9.52;;;2.88;;
47555;SDS011;33291;46.222;26.460;2022-07-22T14:39:15;6.15;;;3.13;;
47555;SDS011;33291;46.222;26.460;2022-07-22T14:41:40;9.48;;;3.50;;
47555;SDS011;33291;46.222;26.460;2022-07-22T14:44:06;8.65;;;3.20;;
47555;SDS011;33291;46.222;26.460;2022-07-22T14:46:32;5.55;;;2.78;;
47555;SDS011;33291;46.222;26.460;2022-07-22T14:48:57;6.15;;;3.08;;
47555;SDS011;33291;46.222;26.460;2022-07-22T14:51:23;8.98;;;3.08;;
47555;SDS011;33291;46.222;26.460;2022-07-22T14:53:49;6.95;;;3.03;;
47555;SDS011;33291;46.222;26.460;2022-07-22T14:56:15;7.72;;;2.90;;
47555;SDS011;33291;46.222;26.460;2022-07-22T14:58:40;8.52;;;3.20;;
47555;SDS011;33291;46.222;26.460;2022-07-22T15:01:06;6.43;;;2.83;;